sensor_id;sensor_type;location;lat;lon;timestamp;P1;durP1;ratioP1;P2;durP2;ratioP2
67554;SDS011;54385;53.516;49.456;2023-12-04T00:02:18;1.10;;;0.90;;
67554;SDS011;54385;53.516;49.456;2023-12-04T00:04:47;0.98;;;0.80;;
67554;SDS011;54385;53.516;49.456;2023-12-04T00:07:13;0.85;;;0.70;;
67554;SDS011;54385;53.516;49.456;2023-12-04T00:09:40;1.00;;;0.80;;
67554;SDS011;54385;53.516;49.456;2023-12-04T00:12:06;0.90;;;0.70;;
67554;SDS011;54385;53.516;49.456;2023-12-04T00:14:36;0.98;;;0.80;;
67554;SDS011;54385;53.516;49.456;2023-12-04T00:17:03;1.05;;;0.70;;
67554;SDS011;54385;53.516;49.456;2023-12-04T00:19:29;1.08;;;0.82;;
67554;SDS011;54385;53.516;49.456;2023-12-04T00:21:59;0.93;;;0.80;;
67554;SDS011;54385;53.516;49.456;2023-12-04T00:24:27;1.00;;;0.70;;
67554;SDS011;54385;53.516;49.456;2023-12-04T00:26:54;0.85;;;0.70;;
67554;SDS011;54385;53.516;49.456;2023-12-04T00:29:20;1.10;;;0.80;;
67554;SDS011;54385;53.516;49.456;2023-12-04T00:31:47;1.02;;;0.80;;
67554;SDS011;54385;53.516;49.456;2023-12-04T00:34:13;1.00;;;0.80;;
67554;SDS011;54385;53.516;49.456;2023-12-04T00:36:40;0.88;;;0.70;;
67554;SDS011;54385;53.516;49.456;2023-12-04T00:39:06;1.00;;;0.90;;
67554;SDS011;54385;53.516;49.456;2023-12-04T00:41:33;1.30;;;0.98;;
67554;SDS011;54385;53.516;49.456;2023-12-04T00:44:00;1.10;;;0.90;;
67554;SDS011;54385;53.516;49.456;2023-12-04T00:46:26;1.30;;;0.88;;
67554;SDS011;54385;53.516;49.456;2023-12-04T00:48:53;0.98;;;0.70;;
67554;SDS011;54385;53.516;49.456;2023-12-04T00:51:19;1.00;;;0.90;;
67554;SDS011;54385;53.516;49.456;2023-12-04T00:53:46;0.90;;;0.80;;
67554;SDS011;54385;53.516;49.456;2023-12-04T00:56:12;0.60;;;0.60;;
67554;SDS011;54385;53.516;49.456;2023-12-04T00:58:41;0.82;;;0.70;;
67554;SDS011;54385;53.516;49.456;2023-12-04T01:01:08;1.00;;;0.80;;
67554;SDS011;54385;53.516;49.456;2023-12-04T01:03:37;1.08;;;0.73;;
67554;SDS011;54385;53.516;49.456;2023-12-04T01:06:07;0.90;;;0.70;;
67554;SDS011;54385;53.516;49.456;2023-12-04T01:08:33;0.85;;;0.65;;
67554;SDS011;54385;53.516;49.456;2023-12-04T01:11:00;0.60;;;0.60;;
67554;SDS011;54385;53.516;49.456;2023-12-04T01:13:32;1.05;;;0.82;;
67554;SDS011;54385;53.516;49.456;2023-12-04T01:15:58;1.00;;;0.80;;
67554;SDS011;54385;53.516;49.456;2023-12-04T01:18:25;0.73;;;0.68;;
67554;SDS011;54385;53.516;49.456;2023-12-04T01:20:51;0.50;;;0.50;;
67554;SDS011;54385;53.516;49.456;2023-12-04T01:23:18;1.00;;;0.80;;
67554;SDS011;54385;53.516;49.456;2023-12-04T01:25:47;1.02;;;0.80;;
67554;SDS011;54385;53.516;49.456;2023-12-04T01:28:13;1.00;;;0.90;;
67554;SDS011;54385;53.516;49.456;2023-12-04T01:30:40;0.90;;;0.68;;
67554;SDS011;54385;53.516;49.456;2023-12-04T01:33:09;0.70;;;0.60;;
67554;SDS011;54385;53.516;49.456;2023-12-04T01:35:35;0.93;;;0.80;;
67554;SDS011;54385;53.516;49.456;2023-12-04T01:38:02;0.77;;;0.60;;
67554;SDS011;54385;53.516;49.456;2023-12-04T01:40:29;1.00;;;0.70;;
67554;SDS011;54385;53.516;49.456;2023-12-04T01:42:55;0.68;;;0.60;;
67554;SDS011;54385;53.516;49.456;2023-12-04T01:45:21;0.90;;;0.70;;
67554;SDS011;54385;53.516;49.456;2023-12-04T01:47:48;0.70;;;0.70;;
67554;SDS011;54385;53.516;49.456;2023-12-04T01:50:15;0.50;;;0.50;;
67554;SDS011;54385;53.516;49.456;2023-12-04T01:52:42;0.98;;;0.80;;
67554;SDS011;54385;53.516;49.456;2023-12-04T01:55:12;0.80;;;0.65;;
67554;SDS011;54385;53.516;49.456;2023-12-04T01:57:43;0.98;;;0.80;;
67554;SDS011;54385;53.516;49.456;2023-12-04T02:00:11;0.75;;;0.70;;
67554;SDS011;54385;53.516;49.456;2023-12-04T02:02:39;1.10;;;0.80;;
67554;SDS011;54385;53.516;49.456;2023-12-04T02:05:08;0.80;;;0.60;;
67554;SDS011;54385;53.516;49.456;2023-12-04T02:07:35;0.80;;;0.70;;
67554;SDS011;54385;53.516;49.456;2023-12-04T02:10:03;1.08;;;0.80;;
67554;SDS011;54385;53.516;49.456;2023-12-04T02:12:30;0.75;;;0.70;;
67554;SDS011;54385;53.516;49.456;2023-12-04T02:14:57;0.80;;;0.57;;
67554;SDS011;54385;53.516;49.456;2023-12-04T02:17:25;0.70;;;0.60;;
67554;SDS011;54385;53.516;49.456;2023-12-04T02:19:54;0.70;;;0.60;;
67554;SDS011;54385;53.516;49.456;2023-12-04T02:22:21;0.90;;;0.77;;
67554;SDS011;54385;53.516;49.456;2023-12-04T02:24:48;1.13;;;0.85;;
67554;SDS011;54385;53.516;49.456;2023-12-04T02:27:22;0.70;;;0.65;;
67554;SDS011;54385;53.516;49.456;2023-12-04T02:29:54;1.48;;;0.80;;
67554;SDS011;54385;53.516;49.456;2023-12-04T02:32:26;1.00;;;0.70;;
67554;SDS011;54385;53.516;49.456;2023-12-04T02:34:56;0.75;;;0.60;;
67554;SDS011;54385;53.516;49.456;2023-12-04T02:37:29;0.75;;;0.60;;
67554;SDS011;54385;53.516;49.456;2023-12-04T02:39:58;1.02;;;0.70;;
67554;SDS011;54385;53.516;49.456;2023-12-04T02:42:25;1.08;;;0.80;;
67554;SDS011;54385;53.516;49.456;2023-12-04T02:44:52;0.80;;;0.70;;
67554;SDS011;54385;53.516;49.456;2023-12-04T02:47:22;1.17;;;0.70;;
67554;SDS011;54385;53.516;49.456;2023-12-04T02:49:49;0.70;;;0.70;;
67554;SDS011;54385;53.516;49.456;2023-12-04T02:52:15;1.05;;;0.70;;
67554;SDS011;54385;53.516;49.456;2023-12-04T02:54:42;0.98;;;0.68;;
67554;SDS011;54385;53.516;49.456;2023-12-04T02:57:09;0.75;;;0.68;;
67554;SDS011;54385;53.516;49.456;2023-12-04T02:59:40;0.80;;;0.70;;
67554;SDS011;54385;53.516;49.456;2023-12-04T03:02:12;1.30;;;0.85;;
67554;SDS011;54385;53.516;49.456;2023-12-04T03:04:41;0.60;;;0.57;;
67554;SDS011;54385;53.516;49.456;2023-12-04T03:07:11;0.77;;;0.60;;
67554;SDS011;54385;53.516;49.456;2023-12-04T03:09:49;1.00;;;0.73;;
67554;SDS011;54385;53.516;49.456;2023-12-04T03:12:18;1.08;;;0.60;;
67554;SDS011;54385;53.516;49.456;2023-12-04T03:14:49;1.45;;;0.60;;
67554;SDS011;54385;53.516;49.456;2023-12-04T03:17:33;2.05;;;0.60;;
67554;SDS011;54385;53.516;49.456;2023-12-04T03:20:02;1.00;;;0.63;;
67554;SDS011;54385;53.516;49.456;2023-12-04T03:22:33;0.70;;;0.60;;
67554;SDS011;54385;53.516;49.456;2023-12-04T03:25:12;1.48;;;1.00;;
67554;SDS011;54385;53.516;49.456;2023-12-04T03:27:39;1.42;;;1.17;;
67554;SDS011;54385;53.516;49.456;2023-12-04T03:30:06;1.95;;;1.20;;
67554;SDS011;54385;53.516;49.456;2023-12-04T03:32:37;1.73;;;1.10;;
67554;SDS011;54385;53.516;49.456;2023-12-04T03:35:31;3.17;;;1.60;;
67554;SDS011;54385;53.516;49.456;2023-12-04T03:38:03;2.58;;;1.33;;
67554;SDS011;54385;53.516;49.456;2023-12-04T03:40:36;2.25;;;1.63;;
67554;SDS011;54385;53.516;49.456;2023-12-04T03:43:02;2.13;;;1.40;;
67554;SDS011;54385;53.516;49.456;2023-12-04T03:45:29;3.00;;;1.52;;
67554;SDS011;54385;53.516;49.456;2023-12-04T03:47:56;2.30;;;1.67;;
67554;SDS011;54385;53.516;49.456;2023-12-04T03:50:23;3.85;;;1.50;;
67554;SDS011;54385;53.516;49.456;2023-12-04T03:52:56;1.60;;;1.20;;
67554;SDS011;54385;53.516;49.456;2023-12-04T03:55:23;2.75;;;1.40;;
67554;SDS011;54385;53.516;49.456;2023-12-04T03:57:56;2.50;;;1.45;;
67554;SDS011;54385;53.516;49.456;2023-12-04T04:00:23;3.42;;;1.65;;
67554;SDS011;54385;53.516;49.456;2023-12-04T04:02:50;2.67;;;1.40;;
67554;SDS011;54385;53.516;49.456;2023-12-04T04:05:33;3.25;;;1.60;;
67554;SDS011;54385;53.516;49.456;2023-12-04T04:08:02;2.38;;;1.33;;
67554;SDS011;54385;53.516;49.456;2023-12-04T04:10:31;1.88;;;1.40;;
67554;SDS011;54385;53.516;49.456;2023-12-04T04:13:00;3.05;;;1.42;;
67554;SDS011;54385;53.516;49.456;2023-12-04T04:15:31;2.45;;;1.40;;
67554;SDS011;54385;53.516;49.456;2023-12-04T04:20:51;2.58;;;1.52;;
67554;SDS011;54385;53.516;49.456;2023-12-04T04:23:34;4.25;;;1.80;;
67554;SDS011;54385;53.516;49.456;2023-12-04T04:26:09;1.98;;;1.50;;
67554;SDS011;54385;53.516;49.456;2023-12-04T04:28:36;2.80;;;1.42;;
67554;SDS011;54385;53.516;49.456;2023-12-04T04:31:06;3.75;;;1.50;;
67554;SDS011;54385;53.516;49.456;2023-12-04T04:33:42;2.47;;;1.70;;
67554;SDS011;54385;53.516;49.456;2023-12-04T04:36:16;3.20;;;1.70;;
67554;SDS011;54385;53.516;49.456;2023-12-04T04:38:45;1.92;;;1.50;;
67554;SDS011;54385;53.516;49.456;2023-12-04T04:41:13;2.08;;;1.55;;
67554;SDS011;54385;53.516;49.456;2023-12-04T04:43:42;2.70;;;1.40;;
67554;SDS011;54385;53.516;49.456;2023-12-04T04:46:24;3.20;;;1.33;;
67554;SDS011;54385;53.516;49.456;2023-12-04T04:48:59;6.72;;;1.55;;
67554;SDS011;54385;53.516;49.456;2023-12-04T04:51:34;7.07;;;1.63;;
67554;SDS011;54385;53.516;49.456;2023-12-04T04:54:01;4.78;;;1.48;;
67554;SDS011;54385;53.516;49.456;2023-12-04T04:56:32;2.13;;;1.63;;
67554;SDS011;54385;53.516;49.456;2023-12-04T04:59:00;3.47;;;1.60;;
67554;SDS011;54385;53.516;49.456;2023-12-04T05:01:34;4.10;;;1.80;;
67554;SDS011;54385;53.516;49.456;2023-12-04T05:04:03;6.60;;;1.90;;
67554;SDS011;54385;53.516;49.456;2023-12-04T05:06:49;2.42;;;1.35;;
67554;SDS011;54385;53.516;49.456;2023-12-04T05:09:19;3.03;;;1.63;;
67554;SDS011;54385;53.516;49.456;2023-12-04T05:11:46;1.98;;;1.25;;
67554;SDS011;54385;53.516;49.456;2023-12-04T05:14:33;3.92;;;1.40;;
67554;SDS011;54385;53.516;49.456;2023-12-04T05:17:00;2.95;;;1.38;;
67554;SDS011;54385;53.516;49.456;2023-12-04T05:19:31;2.83;;;1.27;;
67554;SDS011;54385;53.516;49.456;2023-12-04T05:22:01;2.40;;;1.40;;
67554;SDS011;54385;53.516;49.456;2023-12-04T05:24:37;4.07;;;1.60;;
67554;SDS011;54385;53.516;49.456;2023-12-04T05:27:12;3.33;;;1.70;;
67554;SDS011;54385;53.516;49.456;2023-12-04T05:29:45;2.67;;;1.70;;
67554;SDS011;54385;53.516;49.456;2023-12-04T05:32:28;2.92;;;1.60;;
67554;SDS011;54385;53.516;49.456;2023-12-04T05:34:58;3.30;;;1.77;;
67554;SDS011;54385;53.516;49.456;2023-12-04T05:37:26;2.42;;;1.65;;
67554;SDS011;54385;53.516;49.456;2023-12-04T05:40:09;3.08;;;1.90;;
67554;SDS011;54385;53.516;49.456;2023-12-04T05:43:08;4.68;;;1.45;;
67554;SDS011;54385;53.516;49.456;2023-12-04T05:45:39;2.42;;;1.67;;
67554;SDS011;54385;53.516;49.456;2023-12-04T05:48:06;3.97;;;1.80;;
67554;SDS011;54385;53.516;49.456;2023-12-04T05:50:36;3.13;;;2.08;;
67554;SDS011;54385;53.516;49.456;2023-12-04T05:53:05;2.90;;;1.77;;
67554;SDS011;54385;53.516;49.456;2023-12-04T05:55:34;3.58;;;1.80;;
67554;SDS011;54385;53.516;49.456;2023-12-04T05:58:03;3.28;;;1.65;;
67554;SDS011;54385;53.516;49.456;2023-12-04T06:00:30;2.67;;;1.80;;
67554;SDS011;54385;53.516;49.456;2023-12-04T06:03:00;3.22;;;1.90;;
67554;SDS011;54385;53.516;49.456;2023-12-04T06:05:28;3.88;;;1.73;;
67554;SDS011;54385;53.516;49.456;2023-12-04T06:08:00;3.08;;;1.90;;
67554;SDS011;54385;53.516;49.456;2023-12-04T06:10:32;2.55;;;1.85;;
67554;SDS011;54385;53.516;49.456;2023-12-04T06:13:11;3.22;;;2.10;;
67554;SDS011;54385;53.516;49.456;2023-12-04T06:15:50;5.00;;;2.50;;
67554;SDS011;54385;53.516;49.456;2023-12-04T06:18:19;4.45;;;1.80;;
67554;SDS011;54385;53.516;49.456;2023-12-04T06:20:56;4.05;;;2.13;;
67554;SDS011;54385;53.516;49.456;2023-12-04T06:27:04;3.95;;;2.08;;
67554;SDS011;54385;53.516;49.456;2023-12-04T06:29:35;3.55;;;1.92;;
67554;SDS011;54385;53.516;49.456;2023-12-04T06:32:02;4.85;;;2.17;;
67554;SDS011;54385;53.516;49.456;2023-12-04T06:34:30;4.32;;;1.90;;
67554;SDS011;54385;53.516;49.456;2023-12-04T06:37:06;2.88;;;2.20;;
67554;SDS011;54385;53.516;49.456;2023-12-04T06:39:49;5.57;;;2.30;;
67554;SDS011;54385;53.516;49.456;2023-12-04T06:42:52;2.72;;;1.83;;
67554;SDS011;54385;53.516;49.456;2023-12-04T06:45:20;3.83;;;2.40;;
67554;SDS011;54385;53.516;49.456;2023-12-04T06:47:47;5.30;;;2.28;;
67554;SDS011;54385;53.516;49.456;2023-12-04T06:50:23;4.15;;;2.70;;
67554;SDS011;54385;53.516;49.456;2023-12-04T06:52:50;4.53;;;2.35;;
67554;SDS011;54385;53.516;49.456;2023-12-04T06:55:23;4.10;;;2.78;;
67554;SDS011;54385;53.516;49.456;2023-12-04T06:58:01;4.32;;;2.00;;
67554;SDS011;54385;53.516;49.456;2023-12-04T07:00:32;4.75;;;2.50;;
67554;SDS011;54385;53.516;49.456;2023-12-04T07:03:04;2.95;;;2.30;;
67554;SDS011;54385;53.516;49.456;2023-12-04T07:05:34;6.03;;;2.50;;
67554;SDS011;54385;53.516;49.456;2023-12-04T07:08:08;5.80;;;2.50;;
67554;SDS011;54385;53.516;49.456;2023-12-04T07:10:41;6.28;;;2.67;;
67554;SDS011;54385;53.516;49.456;2023-12-04T07:13:24;5.25;;;3.38;;
67554;SDS011;54385;53.516;49.456;2023-12-04T07:15:54;4.53;;;2.95;;
67554;SDS011;54385;53.516;49.456;2023-12-04T07:18:27;4.78;;;3.03;;
67554;SDS011;54385;53.516;49.456;2023-12-04T07:20:57;5.90;;;3.22;;
67554;SDS011;54385;53.516;49.456;2023-12-04T07:23:34;4.40;;;3.28;;
67554;SDS011;54385;53.516;49.456;2023-12-04T07:26:01;5.57;;;3.90;;
67554;SDS011;54385;53.516;49.456;2023-12-04T07:28:35;5.25;;;3.78;;
67554;SDS011;54385;53.516;49.456;2023-12-04T07:31:06;6.97;;;3.80;;
67554;SDS011;54385;53.516;49.456;2023-12-04T07:33:33;6.63;;;4.05;;
67554;SDS011;54385;53.516;49.456;2023-12-04T07:36:12;6.15;;;3.80;;
67554;SDS011;54385;53.516;49.456;2023-12-04T07:38:43;5.97;;;4.20;;
67554;SDS011;54385;53.516;49.456;2023-12-04T07:41:40;5.75;;;4.00;;
67554;SDS011;54385;53.516;49.456;2023-12-04T07:44:26;8.18;;;4.05;;
67554;SDS011;54385;53.516;49.456;2023-12-04T07:47:03;5.93;;;4.03;;
67554;SDS011;54385;53.516;49.456;2023-12-04T07:49:30;6.10;;;4.05;;
67554;SDS011;54385;53.516;49.456;2023-12-04T07:51:58;6.03;;;4.30;;
67554;SDS011;54385;53.516;49.456;2023-12-04T07:54:31;6.35;;;4.00;;
67554;SDS011;54385;53.516;49.456;2023-12-04T07:57:09;5.22;;;3.83;;
67554;SDS011;54385;53.516;49.456;2023-12-04T08:02:30;7.90;;;4.20;;
67554;SDS011;54385;53.516;49.456;2023-12-04T08:05:04;8.23;;;4.15;;
67554;SDS011;54385;53.516;49.456;2023-12-04T08:07:34;8.88;;;4.30;;
67554;SDS011;54385;53.516;49.456;2023-12-04T08:10:04;7.32;;;4.22;;
67554;SDS011;54385;53.516;49.456;2023-12-04T08:12:32;6.97;;;4.30;;
67554;SDS011;54385;53.516;49.456;2023-12-04T08:15:02;8.13;;;4.43;;
67554;SDS011;54385;53.516;49.456;2023-12-04T08:17:30;5.50;;;4.32;;
67554;SDS011;54385;53.516;49.456;2023-12-04T08:20:00;5.80;;;3.80;;
67554;SDS011;54385;53.516;49.456;2023-12-04T08:22:27;7.13;;;4.00;;
67554;SDS011;54385;53.516;49.456;2023-12-04T08:24:57;7.72;;;4.20;;
67554;SDS011;54385;53.516;49.456;2023-12-04T08:27:31;4.95;;;4.00;;
67554;SDS011;54385;53.516;49.456;2023-12-04T08:30:04;5.72;;;4.20;;
67554;SDS011;54385;53.516;49.456;2023-12-04T08:32:47;4.85;;;3.92;;
67554;SDS011;54385;53.516;49.456;2023-12-04T08:35:24;7.07;;;4.32;;
67554;SDS011;54385;53.516;49.456;2023-12-04T08:37:51;6.28;;;3.63;;
67554;SDS011;54385;53.516;49.456;2023-12-04T08:40:32;5.57;;;4.32;;
67554;SDS011;54385;53.516;49.456;2023-12-04T08:42:59;7.03;;;4.18;;
67554;SDS011;54385;53.516;49.456;2023-12-04T08:45:33;7.32;;;3.85;;
67554;SDS011;54385;53.516;49.456;2023-12-04T08:48:01;7.30;;;4.28;;
67554;SDS011;54385;53.516;49.456;2023-12-04T08:50:28;5.35;;;3.63;;
67554;SDS011;54385;53.516;49.456;2023-12-04T08:52:55;6.80;;;3.72;;
67554;SDS011;54385;53.516;49.456;2023-12-04T08:55:22;5.72;;;4.28;;
67554;SDS011;54385;53.516;49.456;2023-12-04T08:57:54;7.43;;;4.78;;
67554;SDS011;54385;53.516;49.456;2023-12-04T09:00:21;8.50;;;4.80;;
67554;SDS011;54385;53.516;49.456;2023-12-04T09:02:49;5.82;;;4.32;;
67554;SDS011;54385;53.516;49.456;2023-12-04T09:05:21;7.25;;;4.85;;
67554;SDS011;54385;53.516;49.456;2023-12-04T09:07:50;7.40;;;4.20;;
67554;SDS011;54385;53.516;49.456;2023-12-04T09:10:17;6.00;;;4.10;;
67554;SDS011;54385;53.516;49.456;2023-12-04T09:12:45;6.15;;;4.07;;
67554;SDS011;54385;53.516;49.456;2023-12-04T09:15:13;5.53;;;3.85;;
67554;SDS011;54385;53.516;49.456;2023-12-04T09:17:40;7.13;;;4.00;;
67554;SDS011;54385;53.516;49.456;2023-12-04T09:20:07;5.63;;;4.18;;
67554;SDS011;54385;53.516;49.456;2023-12-04T09:22:37;6.50;;;4.28;;
67554;SDS011;54385;53.516;49.456;2023-12-04T09:25:14;8.63;;;4.45;;
67554;SDS011;54385;53.516;49.456;2023-12-04T09:27:41;7.25;;;4.07;;
67554;SDS011;54385;53.516;49.456;2023-12-04T09:30:14;5.47;;;4.15;;
67554;SDS011;54385;53.516;49.456;2023-12-04T09:32:41;5.68;;;3.78;;
67554;SDS011;54385;53.516;49.456;2023-12-04T09:35:29;5.60;;;4.10;;
67554;SDS011;54385;53.516;49.456;2023-12-04T09:37:56;9.95;;;4.05;;
67554;SDS011;54385;53.516;49.456;2023-12-04T09:40:29;7.20;;;3.83;;
67554;SDS011;54385;53.516;49.456;2023-12-04T09:42:56;6.10;;;4.05;;
67554;SDS011;54385;53.516;49.456;2023-12-04T09:45:33;5.95;;;4.22;;
67554;SDS011;54385;53.516;49.456;2023-12-04T09:48:07;7.75;;;4.20;;
67554;SDS011;54385;53.516;49.456;2023-12-04T09:50:56;6.47;;;3.72;;
67554;SDS011;54385;53.516;49.456;2023-12-04T09:53:25;5.18;;;3.42;;
67554;SDS011;54385;53.516;49.456;2023-12-04T09:55:53;6.10;;;4.00;;
67554;SDS011;54385;53.516;49.456;2023-12-04T09:58:34;6.95;;;3.72;;
67554;SDS011;54385;53.516;49.456;2023-12-04T10:01:06;5.65;;;3.80;;
67554;SDS011;54385;53.516;49.456;2023-12-04T10:03:38;6.57;;;4.03;;
67554;SDS011;54385;53.516;49.456;2023-12-04T10:06:26;6.00;;;3.95;;
67554;SDS011;54385;53.516;49.456;2023-12-04T10:09:08;6.68;;;3.83;;
67554;SDS011;54385;53.516;49.456;2023-12-04T10:14:43;7.07;;;3.80;;
67554;SDS011;54385;53.516;49.456;2023-12-04T10:17:44;5.13;;;3.55;;
67554;SDS011;54385;53.516;49.456;2023-12-04T10:20:50;5.68;;;4.05;;
67554;SDS011;54385;53.516;49.456;2023-12-04T10:23:39;6.47;;;4.05;;
67554;SDS011;54385;53.516;49.456;2023-12-04T10:26:14;5.63;;;3.67;;
67554;SDS011;54385;53.516;49.456;2023-12-04T10:29:04;6.32;;;3.85;;
67554;SDS011;54385;53.516;49.456;2023-12-04T10:34:02;5.88;;;4.20;;
67554;SDS011;54385;53.516;49.456;2023-12-04T10:36:36;5.28;;;3.95;;
67554;SDS011;54385;53.516;49.456;2023-12-04T10:39:12;4.88;;;3.67;;
67554;SDS011;54385;53.516;49.456;2023-12-04T10:45:27;6.43;;;3.70;;
67554;SDS011;54385;53.516;49.456;2023-12-04T10:47:59;4.90;;;3.67;;
67554;SDS011;54385;53.516;49.456;2023-12-04T10:50:42;5.22;;;3.40;;
67554;SDS011;54385;53.516;49.456;2023-12-04T10:53:14;6.18;;;3.97;;
67554;SDS011;54385;53.516;49.456;2023-12-04T10:55:41;7.47;;;3.65;;
67554;SDS011;54385;53.516;49.456;2023-12-04T11:01:07;5.43;;;3.75;;
67554;SDS011;54385;53.516;49.456;2023-12-04T11:06:41;5.95;;;3.75;;
67554;SDS011;54385;53.516;49.456;2023-12-04T11:09:10;5.63;;;3.70;;
67554;SDS011;54385;53.516;49.456;2023-12-04T11:11:39;8.38;;;4.10;;
67554;SDS011;54385;53.516;49.456;2023-12-04T11:14:12;6.30;;;3.25;;
67554;SDS011;54385;53.516;49.456;2023-12-04T11:16:53;6.80;;;3.88;;
67554;SDS011;54385;53.516;49.456;2023-12-04T11:19:32;5.57;;;3.90;;
67554;SDS011;54385;53.516;49.456;2023-12-04T11:22:19;7.68;;;3.95;;
67554;SDS011;54385;53.516;49.456;2023-12-04T11:24:47;5.38;;;3.45;;
67554;SDS011;54385;53.516;49.456;2023-12-04T11:27:17;6.00;;;3.72;;
67554;SDS011;54385;53.516;49.456;2023-12-04T11:29:46;7.75;;;3.88;;
67554;SDS011;54385;53.516;49.456;2023-12-04T11:32:15;7.45;;;3.72;;
67554;SDS011;54385;53.516;49.456;2023-12-04T11:34:51;6.50;;;4.40;;
67554;SDS011;54385;53.516;49.456;2023-12-04T11:37:22;5.10;;;3.60;;
67554;SDS011;54385;53.516;49.456;2023-12-04T11:39:49;6.07;;;3.67;;
67554;SDS011;54385;53.516;49.456;2023-12-04T11:42:21;6.22;;;3.75;;
67554;SDS011;54385;53.516;49.456;2023-12-04T11:44:57;5.28;;;3.38;;
67554;SDS011;54385;53.516;49.456;2023-12-04T11:47:28;4.43;;;3.17;;
67554;SDS011;54385;53.516;49.456;2023-12-04T11:50:14;5.07;;;3.17;;
67554;SDS011;54385;53.516;49.456;2023-12-04T11:52:41;6.45;;;4.07;;
67554;SDS011;54385;53.516;49.456;2023-12-04T11:55:07;6.15;;;3.63;;
67554;SDS011;54385;53.516;49.456;2023-12-04T11:57:37;6.22;;;3.72;;
67554;SDS011;54385;53.516;49.456;2023-12-04T12:05:23;5.10;;;3.33;;
67554;SDS011;54385;53.516;49.456;2023-12-04T12:08:16;5.32;;;3.50;;
67554;SDS011;54385;53.516;49.456;2023-12-04T12:10:46;5.18;;;3.40;;
67554;SDS011;54385;53.516;49.456;2023-12-04T12:13:16;4.88;;;3.15;;
67554;SDS011;54385;53.516;49.456;2023-12-04T12:15:50;5.88;;;3.17;;
67554;SDS011;54385;53.516;49.456;2023-12-04T12:18:25;4.40;;;3.20;;
67554;SDS011;54385;53.516;49.456;2023-12-04T12:20:54;5.57;;;3.40;;
67554;SDS011;54385;53.516;49.456;2023-12-04T12:23:27;4.28;;;3.00;;
67554;SDS011;54385;53.516;49.456;2023-12-04T12:26:06;4.30;;;3.00;;
67554;SDS011;54385;53.516;49.456;2023-12-04T12:28:49;5.13;;;3.15;;
67554;SDS011;54385;53.516;49.456;2023-12-04T12:31:39;5.40;;;3.13;;
67554;SDS011;54385;53.516;49.456;2023-12-04T12:34:14;6.13;;;3.70;;
67554;SDS011;54385;53.516;49.456;2023-12-04T12:37:06;4.80;;;3.00;;
67554;SDS011;54385;53.516;49.456;2023-12-04T12:40:40;6.32;;;3.47;;
67554;SDS011;54385;53.516;49.456;2023-12-04T12:43:10;7.35;;;4.00;;
67554;SDS011;54385;53.516;49.456;2023-12-04T12:46:18;4.57;;;3.13;;
67554;SDS011;54385;53.516;49.456;2023-12-04T12:49:20;5.28;;;3.17;;
67554;SDS011;54385;53.516;49.456;2023-12-04T12:52:00;6.90;;;3.25;;
67554;SDS011;54385;53.516;49.456;2023-12-04T12:54:36;5.07;;;2.90;;
67554;SDS011;54385;53.516;49.456;2023-12-04T12:57:07;3.97;;;3.00;;
67554;SDS011;54385;53.516;49.456;2023-12-04T12:59:50;4.15;;;3.13;;
67554;SDS011;54385;53.516;49.456;2023-12-04T13:03:14;3.47;;;2.63;;
67554;SDS011;54385;53.516;49.456;2023-12-04T13:09:29;4.82;;;2.95;;
67554;SDS011;54385;53.516;49.456;2023-12-04T13:11:59;4.15;;;3.03;;
67554;SDS011;54385;53.516;49.456;2023-12-04T13:14:41;4.32;;;3.00;;
67554;SDS011;54385;53.516;49.456;2023-12-04T13:17:38;5.18;;;3.13;;
67554;SDS011;54385;53.516;49.456;2023-12-04T13:20:17;4.75;;;3.20;;
67554;SDS011;54385;53.516;49.456;2023-12-04T13:22:48;4.47;;;3.00;;
67554;SDS011;54385;53.516;49.456;2023-12-04T13:25:17;4.35;;;2.78;;
67554;SDS011;54385;53.516;49.456;2023-12-04T13:27:55;3.95;;;2.72;;
67554;SDS011;54385;53.516;49.456;2023-12-04T13:30:21;4.15;;;2.70;;
67554;SDS011;54385;53.516;49.456;2023-12-04T13:33:12;3.30;;;2.65;;
67554;SDS011;54385;53.516;49.456;2023-12-04T13:35:47;3.80;;;2.40;;
67554;SDS011;54385;53.516;49.456;2023-12-04T13:38:16;4.65;;;2.80;;
67554;SDS011;54385;53.516;49.456;2023-12-04T13:40:56;5.50;;;2.90;;
67554;SDS011;54385;53.516;49.456;2023-12-04T13:47:41;3.95;;;2.90;;
67554;SDS011;54385;53.516;49.456;2023-12-04T13:50:28;4.40;;;2.40;;
67554;SDS011;54385;53.516;49.456;2023-12-04T13:53:05;3.35;;;2.42;;
67554;SDS011;54385;53.516;49.456;2023-12-04T13:55:48;4.50;;;2.63;;
67554;SDS011;54385;53.516;49.456;2023-12-04T13:58:57;3.42;;;2.70;;
67554;SDS011;54385;53.516;49.456;2023-12-04T14:01:25;3.33;;;2.55;;
67554;SDS011;54385;53.516;49.456;2023-12-04T14:04:02;3.80;;;2.40;;
67554;SDS011;54385;53.516;49.456;2023-12-04T14:06:40;4.07;;;3.13;;
67554;SDS011;54385;53.516;49.456;2023-12-04T14:09:27;4.78;;;2.90;;
67554;SDS011;54385;53.516;49.456;2023-12-04T14:12:21;2.83;;;2.47;;
67554;SDS011;54385;53.516;49.456;2023-12-04T14:14:54;3.58;;;2.42;;
67554;SDS011;54385;53.516;49.456;2023-12-04T14:17:36;2.80;;;2.20;;
67554;SDS011;54385;53.516;49.456;2023-12-04T14:20:41;3.20;;;2.10;;
67554;SDS011;54385;53.516;49.456;2023-12-04T14:23:38;3.70;;;2.42;;
67554;SDS011;54385;53.516;49.456;2023-12-04T14:26:05;2.95;;;2.25;;
67554;SDS011;54385;53.516;49.456;2023-12-04T14:28:35;3.80;;;2.67;;
67554;SDS011;54385;53.516;49.456;2023-12-04T14:31:03;3.35;;;2.50;;
67554;SDS011;54385;53.516;49.456;2023-12-04T14:33:39;3.45;;;2.83;;
67554;SDS011;54385;53.516;49.456;2023-12-04T14:36:19;4.05;;;2.65;;
67554;SDS011;54385;53.516;49.456;2023-12-04T14:38:56;3.33;;;2.28;;
67554;SDS011;54385;53.516;49.456;2023-12-04T14:41:23;2.88;;;2.17;;
67554;SDS011;54385;53.516;49.456;2023-12-04T14:44:01;3.33;;;2.47;;
67554;SDS011;54385;53.516;49.456;2023-12-04T14:46:29;3.38;;;2.35;;
67554;SDS011;54385;53.516;49.456;2023-12-04T14:48:56;3.28;;;2.38;;
67554;SDS011;54385;53.516;49.456;2023-12-04T14:51:25;3.33;;;2.50;;
67554;SDS011;54385;53.516;49.456;2023-12-04T14:54:07;3.60;;;2.35;;
67554;SDS011;54385;53.516;49.456;2023-12-04T14:56:37;3.33;;;2.67;;
67554;SDS011;54385;53.516;49.456;2023-12-04T14:59:40;3.22;;;2.45;;
67554;SDS011;54385;53.516;49.456;2023-12-04T15:02:47;2.67;;;2.20;;
67554;SDS011;54385;53.516;49.456;2023-12-04T15:05:44;3.15;;;2.47;;
67554;SDS011;54385;53.516;49.456;2023-12-04T15:08:49;3.30;;;2.63;;
67554;SDS011;54385;53.516;49.456;2023-12-04T15:11:42;2.42;;;2.20;;
67554;SDS011;54385;53.516;49.456;2023-12-04T15:14:44;3.05;;;2.30;;
67554;SDS011;54385;53.516;49.456;2023-12-04T15:17:52;3.53;;;2.50;;
67554;SDS011;54385;53.516;49.456;2023-12-04T15:20:39;2.67;;;2.30;;
67554;SDS011;54385;53.516;49.456;2023-12-04T15:23:20;3.97;;;2.30;;
67554;SDS011;54385;53.516;49.456;2023-12-04T15:25:51;3.28;;;2.17;;
67554;SDS011;54385;53.516;49.456;2023-12-04T15:28:22;2.42;;;1.95;;
67554;SDS011;54385;53.516;49.456;2023-12-04T15:34:37;2.67;;;2.15;;
67554;SDS011;54385;53.516;49.456;2023-12-04T15:37:04;3.72;;;2.25;;
67554;SDS011;54385;53.516;49.456;2023-12-04T15:40:30;3.00;;;2.25;;
67554;SDS011;54385;53.516;49.456;2023-12-04T15:43:06;2.78;;;2.22;;
67554;SDS011;54385;53.516;49.456;2023-12-04T15:45:35;2.80;;;2.10;;
67554;SDS011;54385;53.516;49.456;2023-12-04T15:51:05;3.28;;;1.92;;
67554;SDS011;54385;53.516;49.456;2023-12-04T15:53:32;3.03;;;2.08;;
67554;SDS011;54385;53.516;49.456;2023-12-04T15:56:06;3.00;;;2.28;;
67554;SDS011;54385;53.516;49.456;2023-12-04T15:58:36;2.30;;;1.88;;